Time;durP1;ratioP1;P1;durP2;ratioP2;P2;SDS_P1;SDS_P2;PMS_P1;PMS_P2;Temp;Humidity;BMP_temperature;BMP_pressure;BME280_temperature;BME280_humidity;BME280_pressure;Samples;Min_cycle;Max_cycle;Signal;HPM_P1;HPM_P2
2021/07/17 00:00:46;;;;;;;;;;;17.50;95.60;;;;;;4939137;28;20056;-67
2021/07/17 00:03:11;;;;;;;;;;;17.50;95.70;;;;;;4939032;28;19941;-67
2021/07/17 00:05:37;;;;;;;;;;;17.50;95.60;;;;;;4940498;28;20163;-66
2021/07/17 00:08:03;;;;;;;;;;;17.50;95.60;;;;;;4941474;28;19918;-66
2021/07/17 00:10:35;;;;;;;;;;;17.50;95.50;;;;;;4933709;28;19963;-67
2021/07/17 00:13:01;;;;;;;;;;;17.50;95.60;;;;;;4940251;28;20105;-67
2021/07/17 00:15:27;;;;;;;;;;;17.50;95.60;;;;;;4940324;28;19937;-69
2021/07/17 00:17:52;;;;;;;;;;;17.50;95.50;;;;;;4943232;28;20383;-66
2021/07/17 00:20:19;;;;;;;;;;;17.50;95.60;;;;;;4940909;28;20000;-67
2021/07/17 00:22:44;;;;;;;;;;;17.50;95.60;;;;;;4942054;28;19914;-67
2021/07/17 00:25:12;;;;;;;;;;;17.40;95.80;;;;;;4936585;29;19914;-68
2021/07/17 00:27:37;;;;;;;;;;;17.40;95.90;;;;;;4932809;29;20404;-68
2021/07/17 00:30:04;;;;;;;;;;;17.40;95.90;;;;;;4942807;28;19914;-66
2021/07/17 00:32:30;;;;;;;;;;;17.40;95.80;;;;;;4938955;28;19918;-69
2021/07/17 00:34:55;;;;;;;;;;;17.40;95.70;;;;;;4944010;28;20383;-67
2021/07/17 00:37:21;;;;;;;;;;;17.40;96.00;;;;;;4942658;29;19922;-66
2021/07/17 00:39:46;;;;;;;;;;;17.40;95.80;;;;;;4939480;28;19966;-67
2021/07/17 00:42:12;;;;;;;;;;;17.30;95.80;;;;;;4937817;28;19915;-67
2021/07/17 00:44:37;;;;;;;;;;;17.30;96.00;;;;;;4937357;28;19922;-67
2021/07/17 00:47:03;;;;;;;;;;;17.30;96.00;;;;;;4938805;28;20048;-68
2021/07/17 00:49:31;;;;;;;;;;;17.30;95.90;;;;;;4944656;29;20279;-66
2021/07/17 00:51:57;;;;;;;;;;;17.30;96.00;;;;;;4939386;28;19923;-69
2021/07/17 00:54:26;;;;;;;;;;;17.30;96.20;;;;;;4940702;28;20111;-66
2021/07/17 00:56:53;;;;;;;;;;;17.30;96.10;;;;;;4936097;28;19999;-67
2021/07/17 00:59:20;;;;;;;;;;;17.30;96.10;;;;;;4933563;29;19927;-67
2021/07/17 01:01:48;;;;;;;;;;;17.20;96.20;;;;;;4938479;29;19937;-67
2021/07/17 01:04:13;;;;;;;;;;;17.10;96.20;;;;;;4941504;28;20110;-66
2021/07/17 01:06:41;;;;;;;;;;;17.10;96.30;;;;;;4943856;28;20383;-66
2021/07/17 01:09:06;;;;;;;;;;;17.10;96.40;;;;;;4932768;28;20651;-67
2021/07/17 01:11:32;;;;;;;;;;;17.00;96.60;;;;;;4941090;28;20031;-66
2021/07/17 01:13:57;;;;;;;;;;;17.00;96.60;;;;;;4938602;28;19926;-66
2021/07/17 01:16:23;;;;;;;;;;;17.00;96.60;;;;;;4930828;28;19974;-66
2021/07/17 01:18:49;;;;;;;;;;;17.00;96.80;;;;;;4935109;28;20339;-67
2021/07/17 01:21:15;;;;;;;;;;;17.00;96.60;;;;;;4941833;28;19948;-67
2021/07/17 01:23:41;;;;;;;;;;;17.00;96.60;;;;;;4937927;28;20202;-67
2021/07/17 01:26:06;;;;;;;;;;;17.00;96.60;;;;;;4943591;28;20042;-67
2021/07/17 01:28:32;;;;;;;;;;;17.00;96.70;;;;;;4932797;28;20316;-68
2021/07/17 01:30:57;;;;;;;;;;;17.00;96.80;;;;;;4941781;28;19926;-67
2021/07/17 01:33:22;;;;;;;;;;;17.00;96.80;;;;;;4939183;28;20021;-67
2021/07/17 01:35:49;;;;;;;;;;;17.00;96.80;;;;;;4937660;28;20301;-68
2021/07/17 01:38:15;;;;;;;;;;;17.00;96.90;;;;;;4926861;29;19922;-67
2021/07/17 01:40:40;;;;;;;;;;;17.00;96.80;;;;;;4942541;28;20382;-67
2021/07/17 01:43:06;;;;;;;;;;;17.00;96.80;;;;;;4937990;28;20316;-67
2021/07/17 01:45:35;;;;;;;;;;;17.00;96.70;;;;;;4940631;28;19925;-67
2021/07/17 01:48:01;;;;;;;;;;;17.00;96.70;;;;;;4934513;29;19918;-68
2021/07/17 01:50:28;;;;;;;;;;;17.00;96.70;;;;;;4932135;28;19911;-68
2021/07/17 01:52:53;;;;;;;;;;;17.00;96.70;;;;;;4937726;28;19919;-67
2021/07/17 01:55:19;;;;;;;;;;;17.00;96.60;;;;;;4940531;28;19944;-67
2021/07/17 01:57:45;;;;;;;;;;;17.00;96.50;;;;;;4938445;28;19926;-66
2021/07/17 02:00:11;;;;;;;;;;;17.00;96.60;;;;;;4940789;28;19915;-67
2021/07/17 02:02:37;;;;;;;;;;;16.90;96.70;;;;;;4941011;28;19915;-66
2021/07/17 02:05:03;;;;;;;;;;;16.90;96.80;;;;;;4941851;28;19922;-67
2021/07/17 02:07:29;;;;;;;;;;;16.80;96.90;;;;;;4936702;28;19919;-67
2021/07/17 02:09:54;;;;;;;;;;;16.80;97.00;;;;;;4936034;28;20483;-67
2021/07/17 02:12:20;;;;;;;;;;;16.80;96.90;;;;;;4936399;28;19992;-68
2021/07/17 02:14:49;;;;;;;;;;;16.80;96.80;;;;;;4942648;28;20379;-66
2021/07/17 02:17:14;;;;;;;;;;;16.80;97.00;;;;;;4936053;29;20543;-66
2021/07/17 02:19:40;;;;;;;;;;;16.70;97.00;;;;;;4939825;29;19923;-67
2021/07/17 02:22:05;;;;;;;;;;;16.70;97.10;;;;;;4934175;29;19923;-66
2021/07/17 02:24:31;;;;;;;;;;;16.70;97.20;;;;;;4940727;28;19966;-67
2021/07/17 02:26:56;;;;;;;;;;;16.70;97.10;;;;;;4936401;28;19914;-66
2021/07/17 02:29:22;;;;;;;;;;;16.80;97.10;;;;;;4956567;28;20340;-66
2021/07/17 02:31:47;;;;;;;;;;;16.70;97.10;;;;;;4944870;28;19931;-68
2021/07/17 02:34:13;;;;;;;;;;;16.70;97.10;;;;;;4944302;28;20226;-66
2021/07/17 02:36:39;;;;;;;;;;;16.70;97.00;;;;;;4942285;28;19962;-67
2021/07/17 02:39:06;;;;;;;;;;;16.60;97.00;;;;;;4944665;28;19918;-68
2021/07/17 02:41:31;;;;;;;;;;;16.60;97.10;;;;;;4940940;28;19914;-66
2021/07/17 02:43:57;;;;;;;;;;;16.60;97.00;;;;;;4939986;29;20062;-67
2021/07/17 02:46:22;;;;;;;;;;;16.60;97.10;;;;;;4936744;28;19937;-68
2021/07/17 02:48:48;;;;;;;;;;;16.60;97.20;;;;;;4941475;28;20352;-68
2021/07/17 02:51:13;;;;;;;;;;;16.50;97.20;;;;;;4944705;28;20002;-66
2021/07/17 02:53:39;;;;;;;;;;;16.60;97.10;;;;;;4940837;29;20319;-68
2021/07/17 02:56:04;;;;;;;;;;;16.50;97.10;;;;;;4938444;28;20029;-67
2021/07/17 02:58:30;;;;;;;;;;;16.50;97.30;;;;;;4949297;28;19983;-66
2021/07/17 03:00:55;;;;;;;;;;;16.50;97.40;;;;;;4943033;28;20416;-68
2021/07/17 03:03:22;;;;;;;;;;;16.40;97.40;;;;;;4928863;28;19926;-69
2021/07/17 03:05:47;;;;;;;;;;;16.40;97.40;;;;;;4945491;28;19921;-67
2021/07/17 03:08:15;;;;;;;;;;;16.40;97.50;;;;;;4944460;29;20012;-67
2021/07/17 03:10:41;;;;;;;;;;;16.40;97.50;;;;;;4945730;28;19950;-67
2021/07/17 03:13:07;;;;;;;;;;;16.40;97.40;;;;;;4947080;28;20347;-66
2021/07/17 03:15:32;;;;;;;;;;;16.40;97.50;;;;;;4936259;28;19918;-67
2021/07/17 03:17:58;;;;;;;;;;;16.30;97.40;;;;;;4929179;28;19975;-67
2021/07/17 03:20:24;;;;;;;;;;;16.30;97.50;;;;;;4937595;29;19937;-67
2021/07/17 03:22:49;;;;;;;;;;;16.30;97.50;;;;;;4936466;28;20018;-67
2021/07/17 03:25:15;;;;;;;;;;;16.30;97.50;;;;;;4941878;29;19982;-66
2021/07/17 03:27:40;;;;;;;;;;;16.30;97.50;;;;;;4940424;28;19923;-67
2021/07/17 03:30:06;;;;;;;;;;;16.30;97.40;;;;;;4943410;29;20275;-66
2021/07/17 03:32:32;;;;;;;;;;;16.30;97.40;;;;;;4933864;28;20010;-67
2021/07/17 03:34:58;;;;;;;;;;;16.30;97.50;;;;;;4943232;28;20065;-67
2021/07/17 03:37:23;;;;;;;;;;;16.30;97.70;;;;;;4933406;29;20095;-66
2021/07/17 03:39:49;;;;;;;;;;;16.30;97.70;;;;;;4947432;28;19914;-67
2021/07/17 03:42:14;;;;;;;;;;;16.40;97.60;;;;;;4938157;28;20273;-67
2021/07/17 03:44:40;;;;;;;;;;;16.30;97.60;;;;;;4939361;29;19977;-69
2021/07/17 03:47:05;;;;;;;;;;;16.40;97.70;;;;;;4945641;28;19978;-66
2021/07/17 03:49:31;;;;;;;;;;;16.40;97.80;;;;;;4943107;28;19959;-69
2021/07/17 03:51:56;;;;;;;;;;;16.40;97.90;;;;;;4940350;29;19915;-67
2021/07/17 03:54:22;;;;;;;;;;;16.40;97.80;;;;;;4954132;28;19933;-67
2021/07/17 03:56:47;;;;;;;;;;;16.50;97.90;;;;;;4934944;28;19930;-68
2021/07/17 03:59:13;;;;;;;;;;;16.50;97.90;;;;;;4940557;29;20003;-67
2021/07/17 04:01:38;;;;;;;;;;;16.50;97.90;;;;;;4941844;28;20326;-66
2021/07/17 04:04:04;;;;;;;;;;;16.60;97.80;;;;;;4943276;28;20018;-67
2021/07/17 04:06:30;;;;;;;;;;;16.60;97.70;;;;;;4935938;28;20443;-69
2021/07/17 04:08:56;;;;;;;;;;;16.60;97.60;;;;;;4939967;28;19915;-67
2021/07/17 04:11:21;;;;;;;;;;;16.60;97.50;;;;;;4938020;28;20501;-66
2021/07/17 04:13:47;;;;;;;;;;;16.70;97.50;;;;;;4943021;29;19930;-67
2021/07/17 04:16:12;;;;;;;;;;;16.70;97.40;;;;;;4937693;28;19918;-68
2021/07/17 04:18:38;;;;;;;;;;;16.70;97.30;;;;;;4944293;29;20531;-68
2021/07/17 04:21:03;;;;;;;;;;;16.80;97.20;;;;;;4957389;28;19922;-67
2021/07/17 04:23:29;;;;;;;;;;;16.80;96.90;;;;;;4934271;29;20266;-68
2021/07/17 04:25:54;;;;;;;;;;;16.80;96.70;;;;;;4936551;28;19928;-67
2021/07/17 04:28:20;;;;;;;;;;;16.90;96.60;;;;;;4944236;28;19973;-66
2021/07/17 04:30:45;;;;;;;;;;;17.00;96.30;;;;;;4937805;28;20022;-68
2021/07/17 04:33:11;;;;;;;;;;;17.00;96.10;;;;;;4941678;29;19934;-66
2021/07/17 04:35:37;;;;;;;;;;;17.00;95.60;;;;;;4934119;28;20823;-66
2021/07/17 04:38:02;;;;;;;;;;;17.00;95.60;;;;;;4937360;28;19915;-67
2021/07/17 04:40:28;;;;;;;;;;;17.00;95.30;;;;;;4936919;28;19985;-67
2021/07/17 04:42:53;;;;;;;;;;;17.00;94.60;;;;;;4937776;28;20001;-67
2021/07/17 04:45:18;;;;;;;;;;;17.10;94.20;;;;;;4952032;28;19987;-67
2021/07/17 04:47:44;;;;;;;;;;;17.00;93.70;;;;;;4938613;28;20013;-67
2021/07/17 04:50:10;;;;;;;;;;;17.10;93.20;;;;;;4944973;28;19910;-67
2021/07/17 04:52:35;;;;;;;;;;;17.10;92.50;;;;;;4951131;28;20478;-66
2021/07/17 04:55:01;;;;;;;;;;;17.10;91.20;;;;;;4939837;28;19960;-68
2021/07/17 04:57:26;;;;;;;;;;;17.10;91.30;;;;;;4934743;29;20199;-67
2021/07/17 04:59:52;;;;;;;;;;;17.10;90.90;;;;;;4940267;28;19919;-67
2021/07/17 05:02:17;;;;;;;;;;;17.10;90.10;;;;;;4931745;28;19938;-67
2021/07/17 05:04:43;;;;;;;;;;;17.20;90.10;;;;;;4943080;29;19925;-66
2021/07/17 05:07:08;;;;;;;;;;;17.10;89.80;;;;;;4935934;29;20041;-66
2021/07/17 05:09:34;;;;;;;;;;;17.20;87.20;;;;;;4940611;28;20038;-68
2021/07/17 05:11:59;;;;;;;;;;;17.20;87.30;;;;;;4933765;28;20061;-66
2021/07/17 05:14:25;;;;;;;;;;;17.30;86.60;;;;;;4935913;29;20387;-66
2021/07/17 05:16:50;;;;;;;;;;;17.20;87.40;;;;;;4941800;28;20025;-67
2021/07/17 05:19:18;;;;;;;;;;;17.30;86.10;;;;;;4936412;29;20015;-66
2021/07/17 05:21:44;;;;;;;;;;;17.40;86.00;;;;;;4939393;28;20487;-67
2021/07/17 05:24:09;;;;;;;;;;;17.50;84.70;;;;;;4940743;28;20091;-68
2021/07/17 05:26:35;;;;;;;;;;;17.50;85.50;;;;;;4938113;28;19960;-68
2021/07/17 05:29:00;;;;;;;;;;;17.50;84.00;;;;;;4942381;29;19926;-67
2021/07/17 05:31:26;;;;;;;;;;;17.60;83.80;;;;;;4927557;29;19926;-67
2021/07/17 05:33:51;;;;;;;;;;;17.70;83.70;;;;;;4934733;29;19968;-68
2021/07/17 05:36:17;;;;;;;;;;;17.70;84.40;;;;;;4938914;28;19985;-66
2021/07/17 05:38:42;;;;;;;;;;;17.70;82.60;;;;;;4932081;28;19914;-67
2021/07/17 05:41:08;;;;;;;;;;;17.80;82.60;;;;;;4941697;28;20268;-69
2021/07/17 05:43:34;;;;;;;;;;;17.80;83.00;;;;;;4933066;28;19935;-67
2021/07/17 05:46:00;;;;;;;;;;;17.90;83.10;;;;;;4931438;29;19918;-69
2021/07/17 05:48:25;;;;;;;;;;;17.90;81.80;;;;;;4937678;29;20272;-67
2021/07/17 05:50:51;;;;;;;;;;;18.00;82.80;;;;;;4942617;28;19925;-68
2021/07/17 05:53:16;;;;;;;;;;;18.00;83.50;;;;;;4939497;29;19919;-68
2021/07/17 05:55:42;;;;;;;;;;;18.20;81.90;;;;;;4932792;28;19919;-66
2021/07/17 05:58:08;;;;;;;;;;;18.40;81.90;;;;;;4938855;29;19922;-68
2021/07/17 06:00:34;;;;;;;;;;;18.50;81.60;;;;;;4943361;28;19915;-69
2021/07/17 06:03:00;;;;;;;;;;;18.60;82.20;;;;;;4947862;28;19914;-68
2021/07/17 06:05:26;;;;;;;;;;;18.60;81.30;;;;;;4943747;28;20027;-70
2021/07/17 06:07:51;;;;;;;;;;;18.60;80.70;;;;;;4944763;28;19914;-68
2021/07/17 06:10:17;;;;;;;;;;;18.50;81.30;;;;;;4944108;28;19982;-66
2021/07/17 06:12:42;;;;;;;;;;;18.50;80.90;;;;;;4945846;28;20025;-68
2021/07/17 06:15:08;;;;;;;;;;;18.50;80.80;;;;;;4940010;28;19998;-69
2021/07/17 06:17:33;;;;;;;;;;;18.50;80.70;;;;;;4943794;29;19967;-67
2021/07/17 06:19:59;;;;;;;;;;;18.60;81.00;;;;;;4947044;28;20295;-68
2021/07/17 06:22:24;;;;;;;;;;;18.60;81.00;;;;;;4940017;28;19919;-69
2021/07/17 06:24:50;;;;;;;;;;;18.70;81.20;;;;;;4940847;29;19910;-70
2021/07/17 06:27:15;;;;;;;;;;;19.00;80.50;;;;;;4945035;28;20014;-67
2021/07/17 06:29:40;;;;;;;;;;;19.00;80.50;;;;;;4940842;28;20283;-68
2021/07/17 06:32:06;;;;;;;;;;;19.10;79.30;;;;;;4935360;28;19930;-67
2021/07/17 06:34:32;;;;;;;;;;;19.00;79.50;;;;;;4943285;28;20239;-67
2021/07/17 06:36:57;;;;;;;;;;;19.00;79.30;;;;;;4943375;28;20167;-69
2021/07/17 06:39:23;;;;;;;;;;;19.10;80.10;;;;;;4948715;28;19965;-67
2021/07/17 06:41:49;;;;;;;;;;;19.20;79.30;;;;;;4946089;28;20287;-68
2021/07/17 06:44:14;;;;;;;;;;;19.40;79.60;;;;;;4933946;28;20013;-69
2021/07/17 06:46:40;;;;;;;;;;;19.60;79.90;;;;;;4945570;29;20021;-70
2021/07/17 06:49:05;;;;;;;;;;;19.60;79.60;;;;;;4945257;28;20186;-68
2021/07/17 06:51:34;;;;;;;;;;;19.70;78.50;;;;;;4947348;29;20418;-69
2021/07/17 06:53:59;;;;;;;;;;;19.80;78.90;;;;;;4944775;28;19927;-69
2021/07/17 06:56:25;;;;;;;;;;;20.00;77.70;;;;;;4941131;28;19937;-69
2021/07/17 06:58:51;;;;;;;;;;;20.00;76.10;;;;;;4936020;28;20299;-68
2021/07/17 07:01:17;;;;;;;;;;;20.00;76.30;;;;;;4935795;28;20291;-67
2021/07/17 07:03:42;;;;;;;;;;;20.20;77.00;;;;;;4942550;29;22238;-68
2021/07/17 07:06:08;;;;;;;;;;;20.10;74.80;;;;;;4918326;28;20054;-69
2021/07/17 07:08:34;;;;;;;;;;;20.20;75.70;;;;;;4949581;28;19924;-68
2021/07/17 07:10:59;;;;;;;;;;;20.30;74.70;;;;;;4934578;28;19914;-68
2021/07/17 07:13:24;;;;;;;;;;;20.50;74.80;;;;;;4937054;28;20024;-68
2021/07/17 07:15:50;;;;;;;;;;;20.50;74.20;;;;;;4938272;28;19930;-71
2021/07/17 07:18:15;;;;;;;;;;;20.50;74.10;;;;;;4940159;29;19986;-68
2021/07/17 07:20:41;;;;;;;;;;;20.60;74.80;;;;;;4942225;28;19923;-68
2021/07/17 07:23:07;;;;;;;;;;;20.60;73.90;;;;;;4940818;28;19922;-68
2021/07/17 07:25:32;;;;;;;;;;;20.70;73.20;;;;;;4941961;28;19914;-67
2021/07/17 07:27:58;;;;;;;;;;;20.90;73.50;;;;;;4945200;28;19989;-68
2021/07/17 07:30:23;;;;;;;;;;;21.10;73.70;;;;;;4939559;28;19915;-68
2021/07/17 07:32:49;;;;;;;;;;;21.30;72.00;;;;;;4941770;29;20339;-71
2021/07/17 07:35:15;;;;;;;;;;;21.00;71.80;;;;;;4947359;28;19915;-69
2021/07/17 07:37:41;;;;;;;;;;;21.20;72.10;;;;;;4943932;28;20399;-68
2021/07/17 07:40:07;;;;;;;;;;;21.30;71.00;;;;;;4941944;28;19914;-68
2021/07/17 07:42:32;;;;;;;;;;;21.30;72.00;;;;;;4944021;28;19914;-68
2021/07/17 07:44:58;;;;;;;;;;;21.30;71.00;;;;;;4939962;29;20279;-70
2021/07/17 07:47:23;;;;;;;;;;;21.60;71.30;;;;;;4944426;29;20511;-68
2021/07/17 07:49:52;;;;;;;;;;;21.50;71.40;;;;;;4947164;28;19950;-68
2021/07/17 07:52:18;;;;;;;;;;;21.50;69.60;;;;;;4942630;28;19946;-68
2021/07/17 07:54:45;;;;;;;;;;;21.60;70.80;;;;;;4943674;29;19929;-69
2021/07/17 07:57:11;;;;;;;;;;;21.50;70.10;;;;;;4938123;29;19941;-70
2021/07/17 07:59:37;;;;;;;;;;;21.70;69.70;;;;;;4938491;29;19914;-68
2021/07/17 08:02:02;;;;;;;;;;;21.80;69.80;;;;;;4933398;28;20404;-68
2021/07/17 08:04:28;;;;;;;;;;;22.00;69.80;;;;;;4934279;29;19923;-72
2021/07/17 08:06:54;;;;;;;;;;;22.00;70.80;;;;;;4947409;28;19937;-70
2021/07/17 08:09:19;;;;;;;;;;;22.20;70.70;;;;;;4934612;29;20273;-69
2021/07/17 08:11:45;;;;;;;;;;;21.70;69.50;;;;;;4947648;29;19922;-68
2021/07/17 08:14:10;;;;;;;;;;;21.90;69.80;;;;;;4938476;28;19915;-71
2021/07/17 08:16:36;;;;;;;;;;;22.30;71.20;;;;;;4939224;29;20297;-69
2021/07/17 08:19:01;;;;;;;;;;;22.40;70.60;;;;;;4941764;28;20105;-68
2021/07/17 08:21:27;;;;;;;;;;;22.50;69.80;;;;;;4943804;28;19978;-70
2021/07/17 08:23:53;;;;;;;;;;;22.90;70.50;;;;;;4935830;28;19929;-70
2021/07/17 08:26:18;;;;;;;;;;;23.10;68.20;;;;;;4929305;29;20115;-69
2021/07/17 08:28:44;;;;;;;;;;;22.50;67.80;;;;;;4938722;28;20321;-68
2021/07/17 08:31:10;;;;;;;;;;;22.60;68.20;;;;;;4940295;29;19914;-68
2021/07/17 08:33:36;;;;;;;;;;;22.50;67.20;;;;;;4943007;28;20005;-69
2021/07/17 08:36:02;;;;;;;;;;;22.50;67.90;;;;;;4944342;28;19977;-69
2021/07/17 08:38:28;;;;;;;;;;;22.70;68.30;;;;;;4939468;29;20032;-70
2021/07/17 08:40:55;;;;;;;;;;;22.90;66.30;;;;;;4941902;28;20438;-69
2021/07/17 08:43:20;;;;;;;;;;;23.00;67.00;;;;;;4896673;28;19981;-69
2021/07/17 08:45:46;;;;;;;;;;;23.30;65.60;;;;;;4938029;28;19926;-68
2021/07/17 08:48:12;;;;;;;;;;;23.50;67.10;;;;;;4934616;28;19959;-69
2021/07/17 08:50:37;;;;;;;;;;;23.70;64.00;;;;;;4933631;29;20017;-69
2021/07/17 08:53:03;;;;;;;;;;;23.60;64.30;;;;;;4937959;28;19934;-68
2021/07/17 08:55:29;;;;;;;;;;;23.30;63.20;;;;;;4939402;28;20359;-71
2021/07/17 08:57:54;;;;;;;;;;;23.50;63.40;;;;;;4944430;28;19923;-70
2021/07/17 09:00:27;;;;;;;;;;;23.60;63.70;;;;;;4945685;28;19910;-71
2021/07/17 09:02:57;;;;;;;;;;;23.80;63.00;;;;;;4940296;28;19926;-70
2021/07/17 09:05:26;;;;;;;;;;;24.00;61.50;;;;;;4939967;29;19914;-69
2021/07/17 09:07:52;;;;;;;;;;;24.00;61.80;;;;;;4936662;28;19918;-68
2021/07/17 09:10:31;;;;;;;;;;;24.30;63.30;;;;;;4942082;28;20053;-72
2021/07/17 09:13:08;;;;;;;;;;;24.10;62.70;;;;;;4933659;28;19914;-69
2021/07/17 09:15:35;;;;;;;;;;;24.20;63.80;;;;;;4946922;28;19929;-69
2021/07/17 09:18:00;;;;;;;;;;;24.10;62.40;;;;;;4934300;28;19925;-69
2021/07/17 09:20:26;;;;;;;;;;;24.20;63.40;;;;;;4941530;28;19926;-71
2021/07/17 09:22:58;;;;;;;;;;;24.20;62.00;;;;;;4940947;28;20057;-68
2021/07/17 09:25:32;;;;;;;;;;;24.30;62.30;;;;;;4941132;28;19958;-70
2021/07/17 09:28:17;;;;;;;;;;;24.30;61.60;;;;;;4932945;28;20013;-71
2021/07/17 09:30:43;;;;;;;;;;;24.20;60.40;;;;;;4942101;29;20176;-68
2021/07/17 09:33:08;;;;;;;;;;;24.50;61.60;;;;;;4941397;29;19922;-70
2021/07/17 09:35:37;;;;;;;;;;;24.30;61.80;;;;;;4931424;28;20154;-68
2021/07/17 09:38:03;;;;;;;;;;;24.20;63.20;;;;;;4943430;28;19918;-68
2021/07/17 09:40:41;;;;;;;;;;;24.30;62.30;;;;;;4939889;28;19914;-70
2021/07/17 09:43:06;;;;;;;;;;;24.50;61.70;;;;;;4949195;28;19967;-66
2021/07/17 09:45:33;;;;;;;;;;;24.50;63.10;;;;;;4943835;28;20249;-71
2021/07/17 09:47:59;;;;;;;;;;;24.60;62.90;;;;;;4944986;28;19986;-69
2021/07/17 09:50:31;;;;;;;;;;;25.20;60.90;;;;;;4948414;28;20028;-68
2021/07/17 09:52:57;;;;;;;;;;;25.40;61.10;;;;;;4944086;28;19926;-67
2021/07/17 09:55:23;;;;;;;;;;;25.00;62.60;;;;;;4945728;28;19924;-68
2021/07/17 09:57:50;;;;;;;;;;;24.80;61.20;;;;;;4944511;28;19925;-69
2021/07/17 10:00:19;;;;;;;;;;;25.00;61.70;;;;;;4943734;28;19986;-69
2021/07/17 10:02:44;;;;;;;;;;;25.30;59.90;;;;;;4946391;29;20408;-68
2021/07/17 10:05:14;;;;;;;;;;;25.70;59.00;;;;;;4948618;28;20059;-68
2021/07/17 10:07:39;;;;;;;;;;;25.60;59.60;;;;;;4945867;28;20376;-68
2021/07/17 10:10:05;;;;;;;;;;;25.70;61.80;;;;;;4938440;28;19915;-69
2021/07/17 10:12:34;;;;;;;;;;;25.30;61.30;;;;;;4938877;28;19941;-68
2021/07/17 10:15:01;;;;;;;;;;;25.60;58.90;;;;;;4935997;28;20405;-69
2021/07/17 10:17:39;;;;;;;;;;;25.90;57.30;;;;;;4939122;28;19923;-68
2021/07/17 10:20:06;;;;;;;;;;;25.90;59.80;;;;;;4939105;29;19981;-68
2021/07/17 10:22:32;;;;;;;;;;;25.60;60.30;;;;;;4946948;29;20009;-69
2021/07/17 10:24:58;;;;;;;;;;;25.90;59.20;;;;;;4946707;28;20415;-71
2021/07/17 10:27:23;;;;;;;;;;;26.00;58.80;;;;;;4938994;28;19978;-67
2021/07/17 10:29:50;;;;;;;;;;;26.00;57.10;;;;;;4948309;28;20001;-68
2021/07/17 10:32:15;;;;;;;;;;;26.10;56.80;;;;;;4946103;28;20017;-68
2021/07/17 10:34:41;;;;;;;;;;;26.40;58.50;;;;;;4938351;28;20164;-68
2021/07/17 10:37:15;;;;;;;;;;;26.00;58.10;;;;;;4941213;28;20309;-68
2021/07/17 10:39:43;;;;;;;;;;;26.60;56.60;;;;;;4949350;28;20339;-68
2021/07/17 10:42:12;;;;;;;;;;;26.60;56.70;;;;;;4946834;28;19953;-69
2021/07/17 10:44:56;;;;;;;;;;;26.60;57.80;;;;;;4942783;28;19952;-71
2021/07/17 10:47:22;;;;;;;;;;;26.50;57.30;;;;;;4942407;28;19997;-71
2021/07/17 10:49:49;;;;;;;;;;;26.50;56.50;;;;;;4930450;28;20371;-71
2021/07/17 10:52:14;;;;;;;;;;;26.30;56.10;;;;;;4942753;28;19969;-70
2021/07/17 10:54:40;;;;;;;;;;;26.40;57.70;;;;;;4937899;28;19915;-69
2021/07/17 10:57:06;;;;;;;;;;;26.10;57.10;;;;;;4931828;29;20305;-69
2021/07/17 10:59:32;;;;;;;;;;;26.50;57.60;;;;;;4946183;29;19910;-68
2021/07/17 11:01:58;;;;;;;;;;;26.30;58.60;;;;;;4937284;28;19923;-68
2021/07/17 11:04:39;;;;;;;;;;;26.00;57.90;;;;;;4947656;28;20579;-68
2021/07/17 11:07:29;;;;;;;;;;;26.30;58.10;;;;;;4938602;29;19973;-68
2021/07/17 11:09:59;;;;;;;;;;;26.80;56.00;;;;;;4947063;29;19946;-72
2021/07/17 11:12:26;;;;;;;;;;;26.80;56.30;;;;;;4944636;28;19951;-69
2021/07/17 11:14:55;;;;;;;;;;;26.70;56.90;;;;;;4946508;28;20005;-68
2021/07/17 11:17:39;;;;;;;;;;;26.80;57.00;;;;;;4937189;28;19945;-69
2021/07/17 11:20:29;;;;;;;;;;;26.90;57.50;;;;;;4947783;28;19997;-69
2021/07/17 11:23:00;;;;;;;;;;;26.90;56.10;;;;;;4952080;28;19914;-70
2021/07/17 11:25:26;;;;;;;;;;;27.00;55.20;;;;;;4944410;28;20053;-71
2021/07/17 11:27:51;;;;;;;;;;;27.20;54.00;;;;;;4939354;28;20045;-69
2021/07/17 11:30:20;;;;;;;;;;;27.20;53.90;;;;;;4943506;28;19992;-71
2021/07/17 11:33:04;;;;;;;;;;;27.10;56.00;;;;;;4944000;28;19930;-71
2021/07/17 11:35:30;;;;;;;;;;;26.90;54.10;;;;;;4945852;28;19925;-67
2021/07/17 11:37:56;;;;;;;;;;;27.20;54.70;;;;;;4936747;29;19920;-67
2021/07/17 11:40:21;;;;;;;;;;;27.00;55.00;;;;;;4936009;28;19922;-67
2021/07/17 11:42:47;;;;;;;;;;;27.50;55.50;;;;;;4941459;28;20347;-68
2021/07/17 11:45:12;;;;;;;;;;;28.00;54.90;;;;;;4940723;28;20241;-66
2021/07/17 11:47:38;;;;;;;;;;;28.10;51.90;;;;;;4933715;29;20293;-68
2021/07/17 11:50:04;;;;;;;;;;;27.10;55.60;;;;;;4945010;28;19933;-68
2021/07/17 11:52:30;;;;;;;;;;;27.80;55.30;;;;;;4936565;28;19919;-66
2021/07/17 11:54:58;;;;;;;;;;;28.20;53.10;;;;;;4939406;28;19989;-68
2021/07/17 11:57:23;;;;;;;;;;;28.00;52.60;;;;;;4935822;28;20177;-67
2021/07/17 11:59:56;;;;;;;;;;;27.80;54.20;;;;;;4939039;28;20034;-67
2021/07/17 12:02:22;;;;;;;;;;;27.80;53.00;;;;;;4924852;28;19929;-66
2021/07/17 12:04:48;;;;;;;;;;;28.10;52.20;;;;;;4941000;28;19930;-70
2021/07/17 12:07:16;;;;;;;;;;;28.40;51.30;;;;;;4942222;28;19995;-69
2021/07/17 12:09:43;;;;;;;;;;;28.30;52.60;;;;;;4944101;29;19923;-66
2021/07/17 12:12:26;;;;;;;;;;;28.30;50.40;;;;;;4943188;28;20010;-68
2021/07/17 12:14:59;;;;;;;;;;;28.50;51.00;;;;;;4940590;28;19914;-68
2021/07/17 12:17:25;;;;;;;;;;;28.50;50.40;;;;;;4942628;29;20394;-67
2021/07/17 12:20:07;;;;;;;;;;;28.40;50.20;;;;;;4940957;28;19958;-68
2021/07/17 12:22:33;;;;;;;;;;;28.40;52.50;;;;;;4935472;28;20339;-67
2021/07/17 12:25:01;;;;;;;;;;;28.30;51.80;;;;;;4940224;28;19945;-69
2021/07/17 12:27:27;;;;;;;;;;;27.90;52.60;;;;;;4935728;28;19934;-67
2021/07/17 12:29:52;;;;;;;;;;;28.20;52.10;;;;;;4938190;28;19939;-68
2021/07/17 12:32:19;;;;;;;;;;;27.60;51.40;;;;;;4938550;28;19922;-68
2021/07/17 12:34:55;;;;;;;;;;;27.90;49.50;;;;;;4940935;29;19930;-69
2021/07/17 12:37:29;;;;;;;;;;;28.00;51.10;;;;;;4937978;29;20019;-68
2021/07/17 12:40:08;;;;;;;;;;;28.40;49.40;;;;;;4941916;28;19922;-65
2021/07/17 12:42:41;;;;;;;;;;;28.30;50.80;;;;;;4940632;28;19919;-68
2021/07/17 12:45:06;;;;;;;;;;;28.30;51.00;;;;;;4936107;28;19926;-68
2021/07/17 12:47:32;;;;;;;;;;;29.50;45.70;;;;;;4942387;28;19993;-69
2021/07/17 12:50:01;;;;;;;;;;;29.30;48.20;;;;;;4940032;28;20146;-69
2021/07/17 12:52:27;;;;;;;;;;;28.90;45.80;;;;;;4940262;29;19959;-68
2021/07/17 12:55:04;;;;;;;;;;;28.50;49.00;;;;;;4937654;28;19914;-67
2021/07/17 12:57:29;;;;;;;;;;;28.00;48.80;;;;;;4941569;28;19918;-68
2021/07/17 12:59:55;;;;;;;;;;;28.90;48.20;;;;;;4942071;28;19937;-69
2021/07/17 13:02:21;;;;;;;;;;;29.70;47.20;;;;;;4940511;28;19915;-68
2021/07/17 13:04:46;;;;;;;;;;;29.40;46.10;;;;;;4940993;28;19921;-69
2021/07/17 13:07:12;;;;;;;;;;;29.60;48.00;;;;;;4944084;28;19940;-67
2021/07/17 13:09:38;;;;;;;;;;;29.20;47.10;;;;;;4941350;28;20435;-68
2021/07/17 13:12:04;;;;;;;;;;;28.50;48.80;;;;;;4942054;28;19940;-68
2021/07/17 13:14:30;;;;;;;;;;;28.80;48.10;;;;;;4945362;28;19990;-67
2021/07/17 13:16:55;;;;;;;;;;;28.50;48.20;;;;;;4943770;28;19929;-67
2021/07/17 13:19:23;;;;;;;;;;;28.90;48.10;;;;;;4936741;28;19919;-68
2021/07/17 13:21:49;;;;;;;;;;;28.50;48.20;;;;;;4938795;28;20300;-69
2021/07/17 13:24:15;;;;;;;;;;;29.00;47.80;;;;;;4942713;29;20029;-67
2021/07/17 13:26:42;;;;;;;;;;;30.20;43.90;;;;;;4935633;28;19982;-67
2021/07/17 13:29:15;;;;;;;;;;;30.20;43.70;;;;;;4934327;28;20073;-69
2021/07/17 13:31:48;;;;;;;;;;;29.20;45.50;;;;;;4939543;28;19926;-69
2021/07/17 13:34:16;;;;;;;;;;;29.60;46.00;;;;;;4931751;28;20029;-69
2021/07/17 13:36:50;;;;;;;;;;;29.50;46.50;;;;;;4935500;28;19934;-71
2021/07/17 13:39:16;;;;;;;;;;;28.90;47.50;;;;;;4935999;28;19937;-68
2021/07/17 13:41:41;;;;;;;;;;;28.60;48.30;;;;;;4938606;28;19918;-67
2021/07/17 13:44:15;;;;;;;;;;;28.80;46.90;;;;;;4938264;28;20163;-68
2021/07/17 13:46:40;;;;;;;;;;;29.40;47.00;;;;;;4938577;28;20049;-70
2021/07/17 13:49:12;;;;;;;;;;;29.50;45.00;;;;;;4933553;28;20017;-66
2021/07/17 13:51:38;;;;;;;;;;;29.70;45.50;;;;;;4939640;28;20292;-68
2021/07/17 13:54:04;;;;;;;;;;;28.80;48.10;;;;;;4939114;28;19937;-67
2021/07/17 13:56:30;;;;;;;;;;;29.10;47.90;;;;;;4934342;28;20028;-69
2021/07/17 13:58:57;;;;;;;;;;;28.50;47.70;;;;;;4938713;28;20527;-70
2021/07/17 14:01:23;;;;;;;;;;;28.90;46.70;;;;;;4937226;28;20063;-70
2021/07/17 14:03:48;;;;;;;;;;;28.90;47.10;;;;;;4941851;28;20358;-67
2021/07/17 14:06:17;;;;;;;;;;;29.40;47.20;;;;;;4942801;28;19915;-68
2021/07/17 14:08:44;;;;;;;;;;;29.00;48.70;;;;;;4942816;28;19918;-68
2021/07/17 14:11:10;;;;;;;;;;;28.90;48.10;;;;;;4935329;28;20387;-67
2021/07/17 14:13:37;;;;;;;;;;;28.50;48.30;;;;;;4938054;29;19914;-69